createdAt,value
2024-03-14T00:00:06.322Z,98.43
2024-03-14T00:01:06.178Z,98.47
2024-03-14T00:02:06.265Z,98.57
2024-03-14T00:03:06.201Z,98.57
2024-03-14T00:04:06.136Z,98.68
2024-03-14T00:05:06.158Z,98.57
2024-03-14T00:06:06.115Z,98.57
2024-03-14T00:07:06.092Z,98.68
2024-03-14T00:08:06.082Z,98.68
2024-03-14T00:09:06.088Z,98.77
2024-03-14T00:10:06.067Z,98.57
2024-03-14T00:11:06.053Z,98.68
2024-03-14T00:12:06.030Z,98.36
2024-03-14T00:13:06.017Z,98.47
2024-03-14T00:14:05.995Z,98.57
2024-03-14T00:15:06.193Z,98.47
2024-03-14T00:16:05.971Z,98.47
2024-03-14T00:17:05.951Z,98.57
2024-03-14T00:18:06.457Z,98.68
2024-03-14T00:19:05.993Z,98.77
2024-03-14T00:20:05.940Z,98.77
2024-03-14T00:21:05.907Z,98.77
2024-03-14T00:22:05.891Z,98.88
2024-03-14T00:23:05.876Z,98.88
2024-03-14T00:24:05.915Z,98.98
2024-03-14T00:25:05.848Z,98.98
2024-03-14T00:26:05.834Z,98.98
2024-03-14T00:27:05.964Z,98.88
2024-03-14T00:28:05.809Z,98.98
2024-03-14T00:29:05.802Z,98.77
2024-03-14T00:30:05.839Z,98.88
2024-03-14T00:31:05.814Z,98.88
2024-03-14T00:32:05.757Z,98.98
2024-03-14T00:33:05.861Z,99.18
2024-03-14T00:34:05.775Z,99.18
2024-03-14T00:35:05.751Z,99.33
2024-03-14T00:36:05.830Z,99.33
2024-03-14T00:37:05.684Z,99.18
2024-03-14T00:38:05.704Z,99.23
2024-03-14T00:39:05.694Z,99.33
2024-03-14T00:40:05.647Z,99.33
2024-03-14T00:41:06.405Z,99.43
2024-03-14T00:42:05.717Z,99.43
2024-03-14T00:43:05.627Z,99.43
2024-03-14T00:44:05.587Z,99.54
2024-03-14T00:45:05.597Z,99.54
2024-03-14T00:46:05.561Z,99.43
2024-03-14T00:47:05.548Z,99.43
2024-03-14T00:48:05.635Z,99.43
2024-03-14T00:49:05.581Z,99.43
2024-03-14T00:50:05.506Z,99.43
2024-03-14T00:51:05.716Z,99.43
2024-03-14T00:52:05.494Z,99.43
2024-03-14T00:53:05.479Z,99.54
2024-03-14T00:54:05.489Z,99.79
2024-03-14T00:55:05.464Z,99.79
2024-03-14T00:56:06.354Z,99.74
2024-03-14T00:57:05.515Z,99.74
2024-03-14T00:58:05.393Z,99.79
2024-03-14T00:59:05.384Z,99.89
2024-03-14T01:00:05.374Z,99.89
2024-03-14T01:01:05.394Z,99.89
2024-03-14T01:02:05.361Z,99.99
2024-03-14T01:03:05.358Z,99.99
2024-03-14T01:04:05.445Z,99.99
2024-03-14T01:05:05.296Z,99.99
2024-03-14T01:06:05.326Z,99.99
2024-03-14T01:07:05.306Z,99.99
2024-03-14T01:08:05.277Z,99.99
2024-03-14T01:09:05.365Z,99.99
2024-03-14T01:10:05.319Z,99.99
2024-03-14T01:11:05.238Z,99.99
2024-03-14T01:12:05.431Z,99.99
2024-03-14T01:13:05.193Z,99.99
2024-03-14T01:14:05.177Z,99.99
2024-03-14T01:15:05.200Z,99.99
2024-03-14T01:16:05.172Z,99.99
2024-03-14T01:17:05.321Z,99.99
2024-03-14T01:18:05.257Z,99.99
2024-03-14T01:19:05.251Z,99.99
2024-03-14T01:20:05.158Z,99.99
2024-03-14T01:21:05.201Z,99.99
2024-03-14T01:22:05.084Z,99.99
2024-03-14T01:23:05.069Z,99.99
2024-03-14T01:24:05.043Z,99.99
2024-03-14T01:25:05.030Z,99.99
2024-03-14T01:26:05.029Z,99.99
2024-03-14T01:27:05.025Z,99.99
2024-03-14T01:28:04.985Z,99.99
2024-03-14T01:29:04.993Z,99.99
2024-03-14T01:30:05.136Z,99.99
2024-03-14T01:31:04.968Z,99.99
2024-03-14T01:32:04.948Z,99.99
2024-03-14T01:33:04.972Z,99.99
2024-03-14T01:34:04.942Z,99.99
2024-03-14T01:35:04.898Z,99.99
2024-03-14T01:36:04.915Z,99.99
2024-03-14T01:37:04.877Z,99.99
2024-03-14T01:38:04.853Z,99.99
2024-03-14T01:39:04.894Z,99.99
2024-03-14T01:40:04.860Z,99.99
2024-03-14T01:41:04.861Z,99.99
2024-03-14T01:42:04.903Z,99.99
2024-03-14T01:43:04.799Z,99.99
2024-03-14T01:44:04.787Z,99.99
2024-03-14T01:45:04.791Z,99.99
2024-03-14T01:46:04.755Z,99.99
2024-03-14T01:47:04.737Z,99.99
2024-03-14T01:48:04.808Z,99.99
2024-03-14T01:49:04.866Z,99.99
2024-03-14T01:50:04.725Z,99.99
2024-03-14T01:51:04.746Z,99.99
2024-03-14T01:52:04.674Z,99.99
2024-03-14T01:53:04.654Z,99.99
2024-03-14T01:54:04.683Z,99.99
2024-03-14T01:55:04.769Z,99.99
2024-03-14T01:56:04.633Z,99.99
2024-03-14T01:57:04.734Z,99.99
2024-03-14T01:58:04.605Z,99.99
2024-03-14T01:59:04.596Z,99.99
2024-03-14T02:00:04.670Z,99.99
2024-03-14T02:01:04.589Z,99.99
2024-03-14T02:02:04.557Z,99.99
2024-03-14T02:03:04.691Z,99.99
2024-03-14T02:04:04.536Z,99.99
2024-03-14T02:05:04.522Z,99.99
2024-03-14T02:06:04.527Z,99.99
2024-03-14T02:07:04.477Z,99.99
2024-03-14T02:08:04.469Z,99.99
2024-03-14T02:09:04.503Z,99.99
2024-03-14T02:10:04.440Z,99.99
2024-03-14T02:11:04.441Z,99.99
2024-03-14T02:12:04.437Z,99.93
2024-03-14T02:13:04.392Z,99.99
2024-03-14T02:14:04.397Z,99.84
2024-03-14T02:15:04.420Z,99.73
2024-03-14T02:16:04.352Z,99.73
2024-03-14T02:17:04.364Z,99.73
2024-03-14T02:18:04.400Z,99.73
2024-03-14T02:19:04.351Z,99.58
2024-03-14T02:20:04.301Z,99.63
2024-03-14T02:21:04.368Z,99.73
2024-03-14T02:22:04.276Z,99.52
2024-03-14T02:23:04.273Z,99.63
2024-03-14T02:24:04.291Z,99.63
2024-03-14T02:25:04.231Z,99.63
2024-03-14T02:26:04.229Z,99.58
2024-03-14T02:27:04.271Z,99.48
2024-03-14T02:28:04.212Z,99.18
2024-03-14T02:29:04.189Z,99.07
2024-03-14T02:30:04.207Z,99.18
2024-03-14T02:31:04.154Z,99.27
2024-03-14T02:32:04.137Z,99.27
2024-03-14T02:33:04.269Z,99.27
2024-03-14T02:34:04.108Z,99.27
2024-03-14T02:35:04.097Z,99.27
2024-03-14T02:36:04.175Z,99.18
2024-03-14T02:37:04.088Z,99.07
2024-03-14T02:38:04.073Z,99.18
2024-03-14T02:39:04.130Z,99.18
2024-03-14T02:40:04.042Z,99.18
2024-03-14T02:41:04.028Z,99.07
2024-03-14T02:42:04.063Z,99.07
2024-03-14T02:43:04.017Z,99.18
2024-03-14T02:44:03.979Z,99.07
2024-03-14T02:45:04.030Z,99.18
2024-03-14T02:46:03.945Z,99.27
2024-03-14T02:47:03.946Z,99.38
2024-03-14T02:48:04.057Z,99.48
2024-03-14T02:49:03.909Z,99.63
2024-03-14T02:50:03.909Z,99.63
2024-03-14T02:51:03.936Z,99.52
2024-03-14T02:52:03.884Z,99.43
2024-03-14T02:53:04.715Z,99.63
2024-03-14T02:54:03.872Z,99.84
2024-03-14T02:55:03.824Z,99.99
2024-03-14T02:56:03.834Z,99.99
2024-03-14T02:57:03.874Z,99.99
2024-03-14T02:58:03.791Z,99.99
2024-03-14T02:59:03.790Z,99.99
2024-03-14T03:00:03.785Z,99.99
2024-03-14T03:01:03.804Z,99.93
2024-03-14T03:02:03.732Z,99.84
2024-03-14T03:03:03.741Z,99.93
2024-03-14T03:04:03.704Z,99.93
2024-03-14T03:05:03.691Z,99.84
2024-03-14T03:06:03.714Z,99.84
2024-03-14T03:07:03.668Z,99.84
2024-03-14T03:08:03.662Z,99.84
2024-03-14T03:09:03.685Z,99.84
2024-03-14T03:10:03.639Z,99.93
2024-03-14T03:11:03.656Z,99.93
2024-03-14T03:12:03.693Z,99.84
2024-03-14T03:13:03.584Z,99.73
2024-03-14T03:14:03.569Z,99.63
2024-03-14T03:15:03.593Z,99.52
2024-03-14T03:16:03.562Z,99.43
2024-03-14T03:17:03.529Z,99.52
2024-03-14T03:18:03.626Z,99.63
2024-03-14T03:19:03.517Z,99.78
2024-03-14T03:20:03.512Z,99.98
2024-03-14T03:21:03.545Z,99.99
2024-03-14T03:22:03.480Z,99.99
2024-03-14T03:23:03.456Z,99.99
2024-03-14T03:24:03.505Z,99.99
2024-03-14T03:25:03.449Z,99.99
2024-03-14T03:26:03.421Z,99.99
2024-03-14T03:27:03.437Z,99.99
2024-03-14T03:28:03.405Z,99.99
2024-03-14T03:29:03.388Z,99.99
2024-03-14T03:30:03.487Z,99.99
2024-03-14T03:31:03.359Z,99.99
2024-03-14T03:32:03.338Z,99.99
2024-03-14T03:33:03.437Z,99.99
2024-03-14T03:34:03.533Z,99.99
2024-03-14T03:35:03.316Z,99.99
2024-03-14T03:36:03.296Z,99.99
2024-03-14T03:37:03.272Z,99.99
2024-03-14T03:38:03.256Z,99.99
2024-03-14T03:39:03.293Z,99.99
2024-03-14T03:40:03.230Z,99.99
2024-03-14T03:41:03.218Z,99.99
2024-03-14T03:42:03.247Z,99.99
2024-03-14T03:43:03.195Z,99.99
2024-03-14T03:44:03.223Z,99.99
2024-03-14T03:45:03.294Z,99.99
2024-03-14T03:46:03.164Z,99.99
2024-03-14T03:47:03.171Z,99.99
2024-03-14T03:48:03.195Z,99.99
2024-03-14T03:49:03.179Z,99.99
2024-03-14T03:50:03.101Z,99.99
2024-03-14T03:51:03.179Z,99.99
2024-03-14T03:52:03.074Z,99.99
2024-03-14T03:53:03.080Z,99.99
2024-03-14T03:54:03.174Z,99.99
2024-03-14T03:55:03.039Z,99.99
2024-03-14T03:56:03.020Z,99.99
2024-03-14T03:57:03.050Z,99.99
2024-03-14T03:58:03.025Z,99.99
2024-03-14T03:59:02.996Z,99.99
2024-03-14T04:00:03.033Z,99.99
2024-03-14T04:01:03.083Z,99.99
2024-03-14T04:02:02.952Z,99.99
2024-03-14T04:03:02.995Z,99.99
2024-03-14T04:04:02.920Z,99.99
2024-03-14T04:05:02.925Z,99.99
2024-03-14T04:06:02.935Z,99.99
2024-03-14T04:07:02.906Z,99.99
2024-03-14T04:08:02.892Z,99.99
2024-03-14T04:09:03.019Z,99.99
2024-03-14T04:10:02.854Z,99.99
2024-03-14T04:11:02.843Z,99.99
2024-03-14T04:12:02.901Z,99.99
2024-03-14T04:13:02.837Z,99.99
2024-03-14T04:14:02.786Z,99.99
2024-03-14T04:15:02.846Z,99.99
2024-03-14T04:16:02.764Z,99.99
2024-03-14T04:17:02.767Z,99.99
2024-03-14T04:18:02.842Z,99.99
2024-03-14T04:19:02.821Z,99.99
2024-03-14T04:20:02.725Z,99.99
2024-03-14T04:21:02.740Z,99.99
2024-03-14T04:22:02.707Z,99.99
2024-03-14T04:23:02.701Z,99.99
2024-03-14T04:24:02.781Z,99.99
2024-03-14T04:25:02.649Z,99.99
2024-03-14T04:26:02.640Z,99.99
2024-03-14T04:27:02.751Z,99.99
2024-03-14T04:28:02.601Z,99.99
2024-03-14T04:29:02.595Z,99.99
2024-03-14T04:30:02.705Z,99.99
2024-03-14T04:31:02.594Z,99.99
2024-03-14T04:32:02.595Z,99.99
2024-03-14T04:33:02.580Z,99.99
2024-03-14T04:34:02.636Z,99.99
2024-03-14T04:35:02.524Z,99.99
2024-03-14T04:36:02.546Z,99.99
2024-03-14T04:37:02.496Z,99.99
2024-03-14T04:38:02.474Z,99.99
2024-03-14T04:39:02.485Z,99.99
2024-03-14T04:40:02.476Z,99.99
2024-03-14T04:41:02.443Z,99.99
2024-03-14T04:42:02.466Z,99.99
2024-03-14T04:43:02.402Z,99.99
2024-03-14T04:44:02.387Z,99.99
2024-03-14T04:45:02.416Z,99.99
2024-03-14T04:46:02.376Z,99.99
2024-03-14T04:47:02.366Z,99.99
2024-03-14T04:48:02.461Z,99.99
2024-03-14T04:49:02.498Z,99.99
2024-03-14T04:50:02.367Z,99.99
2024-03-14T04:51:02.344Z,99.99
2024-03-14T04:52:02.290Z,99.99
2024-03-14T04:53:02.293Z,99.99
2024-03-14T04:54:02.298Z,99.99
2024-03-14T04:55:02.262Z,99.99
2024-03-14T04:56:02.238Z,99.99
2024-03-14T04:57:02.267Z,99.99
2024-03-14T04:58:02.205Z,99.99
2024-03-14T04:59:02.211Z,99.99
2024-03-14T05:00:02.273Z,99.99
2024-03-14T05:01:02.184Z,99.99
2024-03-14T05:02:02.148Z,99.99
2024-03-14T05:03:02.240Z,99.99
2024-03-14T05:04:02.137Z,99.99
2024-03-14T05:05:02.113Z,99.99
2024-03-14T05:06:02.224Z,99.99
2024-03-14T05:07:02.094Z,99.99
2024-03-14T05:08:02.066Z,99.99
2024-03-14T05:09:02.142Z,99.99
2024-03-14T05:10:02.047Z,99.99
2024-03-14T05:11:02.098Z,99.99
2024-03-14T05:12:02.087Z,99.99
2024-03-14T05:13:02.019Z,99.99
2024-03-14T05:14:02.008Z,99.99
2024-03-14T05:15:02.037Z,99.99
2024-03-14T05:16:02.062Z,99.99
2024-03-14T05:17:01.955Z,99.99
2024-03-14T05:18:02.048Z,99.99
2024-03-14T05:19:02.092Z,99.99
2024-03-14T05:20:01.925Z,99.99
2024-03-14T05:21:01.922Z,99.99
2024-03-14T05:22:01.896Z,99.99
2024-03-14T05:23:01.903Z,99.99
2024-03-14T05:24:01.917Z,99.99
2024-03-14T05:25:01.849Z,99.99
2024-03-14T05:26:01.829Z,99.99
2024-03-14T05:27:01.871Z,99.99
2024-03-14T05:28:01.848Z,99.99
2024-03-14T05:29:01.815Z,99.99
2024-03-14T05:30:01.822Z,99.99
2024-03-14T05:31:01.761Z,99.99
2024-03-14T05:32:01.762Z,99.99
2024-03-14T05:33:01.829Z,99.99
2024-03-14T05:34:01.768Z,99.99
2024-03-14T05:35:02.273Z,99.99
2024-03-14T05:36:01.706Z,99.99
2024-03-14T05:37:01.704Z,99.99
2024-03-14T05:38:01.665Z,99.99
2024-03-14T05:39:01.707Z,99.99
2024-03-14T05:40:01.660Z,99.99
2024-03-14T05:41:01.633Z,99.99
2024-03-14T05:42:01.670Z,99.99
2024-03-14T05:43:01.611Z,99.99
2024-03-14T05:44:01.590Z,99.99
2024-03-14T05:45:01.622Z,99.99
2024-03-14T05:46:01.585Z,99.99
2024-03-14T05:47:01.577Z,99.99
2024-03-14T05:48:01.585Z,99.99
2024-03-14T05:49:01.539Z,99.99
2024-03-14T05:50:03.290Z,99.99
2024-03-14T05:51:01.538Z,99.99
2024-03-14T05:52:01.490Z,99.99
2024-03-14T05:53:01.473Z,99.99
2024-03-14T05:54:01.480Z,99.99
2024-03-14T05:55:01.499Z,99.99
2024-03-14T05:56:01.448Z,99.99
2024-03-14T05:57:01.459Z,99.99
2024-03-14T05:58:01.408Z,99.99
2024-03-14T05:59:01.399Z,99.99
2024-03-14T06:00:01.423Z,99.99
2024-03-14T06:01:01.472Z,99.99
2024-03-14T06:02:01.374Z,99.99
2024-03-14T06:03:01.455Z,99.99
2024-03-14T06:04:01.351Z,99.99
2024-03-14T06:05:01.364Z,99.99
2024-03-14T06:06:01.378Z,99.99
2024-03-14T06:07:01.299Z,99.99
2024-03-14T06:08:01.280Z,99.99
2024-03-14T06:09:01.281Z,99.99
2024-03-14T06:10:01.263Z,99.99
2024-03-14T06:11:01.318Z,99.99
2024-03-14T06:12:01.390Z,99.99
2024-03-14T06:13:01.216Z,99.99
2024-03-14T06:14:01.192Z,99.99
2024-03-14T06:15:01.296Z,99.99
2024-03-14T06:16:02.562Z,99.99
2024-03-14T06:17:01.169Z,99.99
2024-03-14T06:18:01.245Z,99.99
2024-03-14T06:19:01.232Z,99.99
2024-03-14T06:20:01.159Z,99.99
2024-03-14T06:21:01.150Z,99.99
2024-03-14T06:22:01.087Z,99.99
2024-03-14T06:23:03.625Z,99.99
2024-03-14T06:24:01.099Z,99.99
2024-03-14T06:25:01.069Z,99.99
2024-03-14T06:26:01.041Z,99.99
2024-03-14T06:27:01.249Z,99.99
2024-03-14T06:28:01.027Z,99.99
2024-03-14T06:29:01.020Z,99.99
2024-03-14T06:30:01.118Z,99.99
2024-03-14T06:31:00.989Z,99.99
2024-03-14T06:32:00.968Z,99.99
2024-03-14T06:33:01.038Z,99.99
2024-03-14T06:34:01.103Z,99.99
2024-03-14T06:35:00.933Z,99.99
2024-03-14T06:36:00.955Z,99.99
2024-03-14T06:37:00.902Z,99.99
2024-03-14T06:38:00.878Z,99.99
2024-03-14T06:39:00.933Z,99.99
2024-03-14T06:40:00.950Z,99.99
2024-03-14T06:41:00.869Z,99.99
2024-03-14T06:42:00.863Z,99.99
2024-03-14T06:43:00.842Z,99.99
2024-03-14T06:44:00.856Z,99.99
2024-03-14T06:45:00.810Z,99.99
2024-03-14T06:46:00.771Z,99.99
2024-03-14T06:47:00.758Z,99.99
2024-03-14T06:48:00.917Z,99.99
2024-03-14T06:49:00.816Z,99.99
2024-03-14T06:50:00.784Z,99.99
2024-03-14T06:51:00.749Z,99.99
2024-03-14T06:52:00.689Z,99.99
2024-03-14T06:53:00.686Z,99.99
2024-03-14T06:54:04.065Z,99.99
2024-03-14T06:55:00.667Z,99.99
2024-03-14T06:56:00.648Z,99.99
2024-03-14T06:57:00.667Z,99.99
2024-03-14T06:58:00.701Z,99.99
2024-03-14T06:59:00.631Z,99.99
2024-03-14T07:00:00.768Z,99.99
2024-03-14T07:01:00.618Z,99.99
2024-03-14T07:02:00.564Z,99.99
2024-03-14T07:03:00.617Z,99.99
2024-03-14T07:04:00.546Z,99.99
2024-03-14T07:05:01.686Z,99.99
2024-03-14T07:06:00.665Z,99.99
2024-03-14T07:07:00.499Z,99.99
2024-03-14T07:08:00.514Z,99.99
2024-03-14T07:09:00.632Z,99.99
2024-03-14T07:10:00.453Z,99.99
2024-03-14T07:11:00.482Z,99.99
2024-03-14T07:12:00.499Z,99.99
2024-03-14T07:13:00.434Z,99.99
2024-03-14T07:14:00.422Z,99.99
2024-03-14T07:15:00.467Z,99.99
2024-03-14T07:16:00.376Z,99.99
2024-03-14T07:17:00.388Z,99.99
2024-03-14T07:18:00.833Z,99.99
2024-03-14T07:19:00.433Z,99.99
2024-03-14T07:20:00.329Z,99.99
2024-03-14T07:21:00.343Z,99.99
2024-03-14T07:22:00.321Z,99.99
2024-03-14T07:23:00.312Z,99.99
2024-03-14T07:24:00.301Z,99.99
2024-03-14T07:25:00.282Z,99.99
2024-03-14T07:26:00.253Z,99.99
2024-03-14T07:27:00.421Z,99.99
2024-03-14T07:28:00.282Z,99.99
2024-03-14T07:29:00.241Z,99.99
2024-03-14T07:30:00.331Z,99.99
2024-03-14T07:31:00.656Z,99.99
2024-03-14T07:32:00.240Z,99.99
2024-03-14T07:33:00.247Z,99.99
2024-03-14T07:34:00.603Z,99.99
2024-03-14T07:35:00.161Z,99.99
2024-03-14T07:36:00.160Z,99.99
2024-03-14T07:37:00.156Z,99.63
2024-03-14T07:38:00.118Z,99.22
2024-03-14T07:39:00.107Z,99.27
2024-03-14T07:40:00.057Z,99.18
2024-03-14T07:41:00.071Z,98.66
2024-03-14T07:42:00.078Z,98.50
2024-03-14T07:43:00.051Z,98.91
2024-03-14T07:44:10.713Z,98.91
2024-03-14T07:45:01.091Z,99.02
2024-03-14T07:46:00.013Z,99.68
2024-03-14T07:46:59.992Z,99.99
2024-03-14T07:48:00.008Z,99.84
2024-03-14T07:48:59.996Z,99.84
2024-03-14T07:49:59.925Z,99.63
2024-03-14T07:50:59.984Z,99.52
2024-03-14T07:51:59.930Z,99.11
2024-03-14T07:52:59.895Z,99.22
2024-03-14T07:53:59.905Z,99.63
2024-03-14T07:54:59.874Z,99.63
2024-03-14T07:55:59.861Z,99.73
2024-03-14T07:56:59.890Z,99.48
2024-03-14T07:57:59.819Z,98.97
2024-03-14T07:58:59.803Z,98.56
2024-03-14T07:59:59.819Z,98.66
2024-03-14T08:00:59.842Z,98.41
2024-03-14T08:01:59.926Z,98.11
2024-03-14T08:02:59.813Z,97.86
2024-03-14T08:03:59.753Z,97.30
2024-03-14T08:04:59.741Z,96.69
2024-03-14T08:05:59.784Z,95.97
2024-03-14T08:06:59.706Z,96.08
2024-03-14T08:08:09.873Z,96.08
2024-03-14T08:08:59.704Z,95.73
2024-03-14T08:09:59.672Z,95.17
2024-03-14T08:10:59.671Z,94.97
2024-03-14T08:11:59.692Z,94.62
2024-03-14T08:12:59.637Z,93.66
2024-03-14T08:13:59.642Z,92.94
2024-03-14T08:14:59.636Z,91.93
2024-03-14T08:15:59.590Z,91.88
2024-03-14T08:16:59.578Z,91.78
2024-03-14T08:17:59.618Z,90.72
2024-03-14T08:18:59.629Z,90.42
2024-03-14T08:19:59.530Z,90.83
2024-03-14T08:21:00.093Z,90.58
2024-03-14T08:21:59.509Z,89.97
2024-03-14T08:22:59.500Z,89.52
2024-03-14T08:23:59.561Z,88.87
2024-03-14T08:24:59.461Z,88.32
2024-03-14T08:25:59.452Z,87.61
2024-03-14T08:26:59.482Z,87.26
2024-03-14T08:27:59.447Z,85.70
2024-03-14T08:28:59.403Z,85.46
2024-03-14T08:29:59.406Z,84.97
2024-03-14T08:30:59.404Z,83.61
2024-03-14T08:31:59.410Z,83.21
2024-03-14T08:32:59.559Z,83.11
2024-03-14T08:33:59.376Z,82.50
2024-03-14T08:34:59.348Z,81.96
2024-03-14T08:35:59.334Z,82.32
2024-03-14T08:36:59.300Z,82.02
2024-03-14T08:37:59.303Z,81.25
2024-03-14T08:38:59.391Z,81.15
2024-03-14T08:39:59.264Z,80.26
2024-03-14T08:40:59.245Z,79.32
2024-03-14T08:41:59.288Z,79.28
2024-03-14T08:42:59.254Z,78.13
2024-03-14T08:43:59.210Z,77.08
2024-03-14T08:44:59.222Z,77.39
2024-03-14T08:45:59.198Z,76.62
2024-03-14T08:46:59.182Z,78.85
2024-03-14T08:47:59.237Z,79.52
2024-03-14T08:48:59.176Z,78.27
2024-03-14T08:49:59.130Z,77.02
2024-03-14T08:50:59.131Z,77.08
2024-03-14T08:51:59.124Z,75.40
2024-03-14T08:52:59.093Z,74.62
2024-03-14T08:53:59.233Z,74.05
2024-03-14T08:54:59.110Z,74.15
2024-03-14T08:55:59.050Z,74.59
2024-03-14T08:56:59.101Z,74.46
2024-03-14T08:57:59.028Z,76.28
2024-03-14T08:58:59.008Z,76.97
2024-03-14T08:59:59.031Z,77.37
2024-03-14T09:00:59.007Z,76.72
2024-03-14T09:01:58.982Z,77.17
2024-03-14T09:02:58.967Z,77.23
2024-03-14T09:03:58.948Z,76.15
2024-03-14T09:04:58.930Z,76.25
2024-03-14T09:05:58.964Z,74.87
2024-03-14T09:06:58.964Z,75.13
2024-03-14T09:07:58.895Z,76.52
2024-03-14T09:08:58.912Z,77.23
2024-03-14T09:09:58.865Z,77.03
2024-03-14T09:10:58.920Z,76.89
2024-03-14T09:11:58.886Z,75.40
2024-03-14T09:12:58.823Z,74.19
2024-03-14T09:13:58.816Z,74.60
2024-03-14T09:14:58.834Z,74.69
2024-03-14T09:15:58.833Z,73.89
2024-03-14T09:16:58.783Z,72.75
2024-03-14T09:17:58.871Z,73.65
2024-03-14T09:18:58.815Z,74.33
2024-03-14T09:19:58.733Z,74.49
2024-03-14T09:20:58.901Z,73.15
2024-03-14T09:21:58.710Z,73.82
2024-03-14T09:22:58.738Z,75.31
2024-03-14T09:23:58.696Z,75.98
2024-03-14T09:24:58.671Z,73.75
2024-03-14T09:25:59.453Z,73.93
2024-03-14T09:26:58.669Z,73.38
2024-03-14T09:27:58.631Z,72.85
2024-03-14T09:28:58.941Z,74.43
2024-03-14T09:29:58.621Z,73.52
2024-03-14T09:30:58.611Z,72.67
2024-03-14T09:31:58.583Z,72.17
2024-03-14T09:32:58.639Z,71.20
2024-03-14T09:33:58.588Z,70.90
2024-03-14T09:34:58.550Z,70.26
2024-03-14T09:35:58.630Z,68.41
2024-03-14T09:36:58.512Z,68.41
2024-03-14T09:37:58.575Z,69.92
2024-03-14T09:38:58.526Z,71.50
2024-03-14T09:39:58.495Z,72.91
2024-03-14T09:41:05.139Z,71.23
2024-03-14T09:41:58.528Z,72.24
2024-03-14T09:42:58.639Z,70.39
2024-03-14T09:43:58.437Z,69.25
2024-03-14T09:44:58.462Z,68.25
2024-03-14T09:45:58.400Z,69.02
2024-03-14T09:46:58.379Z,68.38
2024-03-14T09:47:59.162Z,68.18
2024-03-14T09:48:58.465Z,68.48
2024-03-14T09:49:58.364Z,68.25
2024-03-14T09:50:58.444Z,67.88
2024-03-14T09:51:58.322Z,69.49
2024-03-14T09:52:58.308Z,69.72
2024-03-14T09:53:58.354Z,67.58
2024-03-14T09:54:58.316Z,67.61
2024-03-14T09:55:58.304Z,68.68
2024-03-14T09:56:58.285Z,68.51
2024-03-14T09:57:58.295Z,68.65
2024-03-14T09:58:58.246Z,69.79
2024-03-14T09:59:58.254Z,71.40
2024-03-14T10:00:58.257Z,71.06
2024-03-14T10:01:58.186Z,71.53
2024-03-14T10:02:58.274Z,70.16
2024-03-14T10:03:58.175Z,68.92
2024-03-14T10:04:58.147Z,65.64
2024-03-14T10:05:58.159Z,64.73
2024-03-14T10:06:58.135Z,67.91
2024-03-14T10:07:58.127Z,68.11
2024-03-14T10:08:58.159Z,67.74
2024-03-14T10:09:58.118Z,68.28
2024-03-14T10:10:58.095Z,67.91
2024-03-14T10:11:58.113Z,68.31
2024-03-14T10:12:58.126Z,68.59
2024-03-14T10:13:58.033Z,68.35
2024-03-14T10:14:58.037Z,67.94
2024-03-14T10:15:58.013Z,68.71
2024-03-14T10:16:57.993Z,68.41
2024-03-14T10:17:58.066Z,69.35
2024-03-14T10:18:57.986Z,68.04
2024-03-14T10:19:57.967Z,67.38
2024-03-14T10:20:57.957Z,66.40
2024-03-14T10:21:57.927Z,67.71
2024-03-14T10:22:57.928Z,66.74
2024-03-14T10:23:57.916Z,65.97
2024-03-14T10:24:57.885Z,65.64
2024-03-14T10:25:57.873Z,67.18
2024-03-14T10:26:57.917Z,66.97
2024-03-14T10:28:05.821Z,67.01
2024-03-14T10:28:57.834Z,65.47
2024-03-14T10:29:57.821Z,66.20
2024-03-14T10:30:57.804Z,66.94
2024-03-14T10:31:57.809Z,66.24
2024-03-14T10:32:58.203Z,66.14
2024-03-14T10:33:57.830Z,68.15
2024-03-14T10:34:57.815Z,67.91
2024-03-14T10:35:57.770Z,67.18
2024-03-14T10:36:57.888Z,65.23
2024-03-14T10:37:57.717Z,65.03
2024-03-14T10:38:57.720Z,65.06
2024-03-14T10:39:57.689Z,65.80
2024-03-14T10:40:57.672Z,66.33
2024-03-14T10:41:57.757Z,67.77
2024-03-14T10:42:57.683Z,68.01
2024-03-14T10:43:57.647Z,66.54
2024-03-14T10:44:57.643Z,66.60
2024-03-14T10:45:57.676Z,67.88
2024-03-14T10:46:57.621Z,67.78
2024-03-14T10:47:58.142Z,66.67
2024-03-14T10:48:57.684Z,65.11
2024-03-14T10:49:57.561Z,63.04
2024-03-14T10:50:57.630Z,64.01
2024-03-14T10:51:57.549Z,66.50
2024-03-14T10:52:57.526Z,68.85
2024-03-14T10:53:57.580Z,68.88
2024-03-14T10:54:57.615Z,70.22
2024-03-14T10:55:57.490Z,70.26
2024-03-14T10:56:57.546Z,72.17
2024-03-14T10:57:57.456Z,73.52
2024-03-14T10:58:57.475Z,71.91
2024-03-14T10:59:57.462Z,70.97
2024-03-14T11:00:57.480Z,70.83
2024-03-14T11:01:58.961Z,69.89
2024-03-14T11:02:57.414Z,68.35
2024-03-14T11:03:57.375Z,67.74
2024-03-14T11:04:57.362Z,66.98
2024-03-14T11:05:57.441Z,65.21
2024-03-14T11:06:57.350Z,64.14
2024-03-14T11:07:57.325Z,65.60
2024-03-14T11:08:57.372Z,66.00
2024-03-14T11:09:57.302Z,67.18
2024-03-14T11:10:57.322Z,67.64
2024-03-14T11:11:57.311Z,68.51
2024-03-14T11:12:57.260Z,67.51
2024-03-14T11:13:57.246Z,66.01
2024-03-14T11:14:57.293Z,65.31
2024-03-14T11:15:57.244Z,64.78
2024-03-14T11:16:59.762Z,64.07
2024-03-14T11:17:57.334Z,65.88
2024-03-14T11:18:57.290Z,67.47
2024-03-14T11:19:57.168Z,66.94
2024-03-14T11:20:57.180Z,65.97
2024-03-14T11:21:57.144Z,65.57
2024-03-14T11:22:57.147Z,66.41
2024-03-14T11:23:57.150Z,68.55
2024-03-14T11:24:57.098Z,70.15
2024-03-14T11:25:57.125Z,70.56
2024-03-14T11:26:57.084Z,70.79
2024-03-14T11:27:57.074Z,71.80
2024-03-14T11:28:58.237Z,72.17
2024-03-14T11:29:57.096Z,70.83
2024-03-14T11:30:57.060Z,71.60
2024-03-14T11:31:57.021Z,71.60
2024-03-14T11:32:57.405Z,71.60
2024-03-14T11:33:57.069Z,72.11
2024-03-14T11:34:58.317Z,72.14
2024-03-14T11:35:57.001Z,71.94
2024-03-14T11:36:56.940Z,71.87
2024-03-14T11:37:56.939Z,71.64
2024-03-14T11:38:56.943Z,71.53
2024-03-14T11:39:56.921Z,72.85
2024-03-14T11:40:59.183Z,72.54
2024-03-14T11:41:56.913Z,72.44
2024-03-14T11:42:56.864Z,71.67
2024-03-14T11:43:56.960Z,70.73
2024-03-14T11:44:56.902Z,70.79
2024-03-14T11:45:56.835Z,72.00
2024-03-14T11:46:56.876Z,72.38
2024-03-14T11:47:56.902Z,71.03
2024-03-14T11:48:56.912Z,70.19
2024-03-14T11:49:56.773Z,69.02
2024-03-14T11:50:56.779Z,68.35
2024-03-14T11:51:56.745Z,69.72
2024-03-14T11:52:58.291Z,71.20
2024-03-14T11:53:56.763Z,71.30
2024-03-14T11:54:56.706Z,71.10
2024-03-14T11:56:02.372Z,70.89
2024-03-14T11:56:56.757Z,71.00
2024-03-14T11:57:56.673Z,70.53
2024-03-14T11:58:56.699Z,71.33
2024-03-14T12:00:00.021Z,70.12
2024-03-14T12:00:56.763Z,69.99
2024-03-14T12:01:58.713Z,69.92
2024-03-14T12:02:57.093Z,70.32
2024-03-14T12:03:56.626Z,70.90
2024-03-14T12:04:57.807Z,70.29
2024-03-14T12:05:56.584Z,70.36
2024-03-14T12:06:56.631Z,71.40
2024-03-14T12:07:56.829Z,71.40
2024-03-14T12:08:56.578Z,72.24
2024-03-14T12:09:56.513Z,72.44
2024-03-14T12:10:57.568Z,71.06
2024-03-14T12:11:56.587Z,70.12
2024-03-14T12:12:56.484Z,69.92
2024-03-14T12:13:56.458Z,69.96
2024-03-14T12:14:56.471Z,68.58
2024-03-14T12:15:56.435Z,69.89
2024-03-14T12:16:56.417Z,68.08
2024-03-14T12:17:56.486Z,66.84
2024-03-14T12:18:56.590Z,67.07
2024-03-14T12:19:56.398Z,67.58
2024-03-14T12:20:56.393Z,67.94
2024-03-14T12:21:56.378Z,67.04
2024-03-14T12:22:56.362Z,67.00
2024-03-14T12:24:56.311Z,69.59
2024-03-14T12:25:56.302Z,69.25
2024-03-14T12:26:56.305Z,66.52
2024-03-14T12:27:56.285Z,63.87
2024-03-14T12:28:56.293Z,63.71
2024-03-14T12:29:56.269Z,62.35
2024-03-14T12:30:56.230Z,61.32
2024-03-14T12:31:56.237Z,61.98
2024-03-14T12:32:56.319Z,62.98
2024-03-14T12:33:57.330Z,60.65
2024-03-14T12:34:56.204Z,61.65
2024-03-14T12:35:56.243Z,62.08
2024-03-14T12:36:56.168Z,62.48
2024-03-14T12:37:56.158Z,61.78
2024-03-14T12:38:56.153Z,60.65
2024-03-14T12:39:56.117Z,61.22
2024-03-14T12:40:56.129Z,60.10
2024-03-14T12:41:56.125Z,59.99
2024-03-14T12:42:56.160Z,59.62
2024-03-14T12:43:56.087Z,60.52
2024-03-14T12:44:56.078Z,60.42
2024-03-14T12:45:56.052Z,59.27
2024-03-14T12:46:56.038Z,60.55
2024-03-14T12:47:56.145Z,60.22
2024-03-14T12:48:56.465Z,60.29
2024-03-14T12:49:55.986Z,61.18
2024-03-14T12:50:56.095Z,61.71
2024-03-14T12:51:55.981Z,61.91
2024-03-14T12:52:55.942Z,62.97